sensor_id;sensor_type;location;lat;lon;timestamp;temperature;humidity
78463;SHT31;67756;51.982;5.648;2024-01-06T00:01:17;10.0;69.0
78463;SHT31;67756;51.982;5.648;2024-01-06T00:03:46;9.9;68.2
78463;SHT31;67756;51.982;5.648;2024-01-06T00:06:14;9.9;67.8
78463;SHT31;67756;51.982;5.648;2024-01-06T00:08:44;9.9;68.2
78463;SHT31;67756;51.982;5.648;2024-01-06T00:11:15;9.9;67.7
78463;SHT31;67756;51.982;5.648;2024-01-06T00:13:45;9.9;68.2
78463;SHT31;67756;51.982;5.648;2024-01-06T00:16:16;9.9;68.8
78463;SHT31;67756;51.982;5.648;2024-01-06T00:18:47;10.0;68.6
78463;SHT31;67756;51.982;5.648;2024-01-06T00:21:16;10.0;67.4
78463;SHT31;67756;51.982;5.648;2024-01-06T00:23:44;10.0;67.6
78463;SHT31;67756;51.982;5.648;2024-01-06T00:26:13;10.0;66.9
78463;SHT31;67756;51.982;5.648;2024-01-06T00:28:41;9.9;67.2
78463;SHT31;67756;51.982;5.648;2024-01-06T00:31:10;9.9;67.7
78463;SHT31;67756;51.982;5.648;2024-01-06T00:33:38;9.9;67.7
78463;SHT31;67756;51.982;5.648;2024-01-06T00:36:08;9.9;67.7
78463;SHT31;67756;51.982;5.648;2024-01-06T00:38:37;9.8;66.9
78463;SHT31;67756;51.982;5.648;2024-01-06T00:41:08;9.8;67.2
78463;SHT31;67756;51.982;5.648;2024-01-06T00:43:36;9.7;67.9
78463;SHT31;67756;51.982;5.648;2024-01-06T00:46:05;9.7;68.3
78463;SHT31;67756;51.982;5.648;2024-01-06T00:48:36;9.6;68.1
78463;SHT31;67756;51.982;5.648;2024-01-06T00:51:05;9.6;67.7
78463;SHT31;67756;51.982;5.648;2024-01-06T00:53:34;9.6;68.9
78463;SHT31;67756;51.982;5.648;2024-01-06T00:56:03;9.6;68.7
78463;SHT31;67756;51.982;5.648;2024-01-06T00:58:32;9.6;68.5
78463;SHT31;67756;51.982;5.648;2024-01-06T01:01:01;9.6;68.4
78463;SHT31;67756;51.982;5.648;2024-01-06T01:03:29;9.5;67.4
78463;SHT31;67756;51.982;5.648;2024-01-06T01:05:58;9.5;68.0
78463;SHT31;67756;51.982;5.648;2024-01-06T01:08:26;9.5;68.4
78463;SHT31;67756;51.982;5.648;2024-01-06T01:10:57;9.5;68.4
78463;SHT31;67756;51.982;5.648;2024-01-06T01:13:25;9.5;67.3
78463;SHT31;67756;51.982;5.648;2024-01-06T01:15:54;9.4;68.0
78463;SHT31;67756;51.982;5.648;2024-01-06T01:18:23;9.4;68.2
78463;SHT31;67756;51.982;5.648;2024-01-06T01:20:51;9.4;68.1
78463;SHT31;67756;51.982;5.648;2024-01-06T01:23:20;9.4;67.9
78463;SHT31;67756;51.982;5.648;2024-01-06T01:25:48;9.4;67.9
78463;SHT31;67756;51.982;5.648;2024-01-06T01:28:17;9.4;67.9
78463;SHT31;67756;51.982;5.648;2024-01-06T01:30:45;9.5;68.3
78463;SHT31;67756;51.982;5.648;2024-01-06T01:33:14;9.5;68.0
78463;SHT31;67756;51.982;5.648;2024-01-06T01:35:42;9.5;67.8
78463;SHT31;67756;51.982;5.648;2024-01-06T01:38:11;9.5;67.5
78463;SHT31;67756;51.982;5.648;2024-01-06T01:40:39;9.5;67.5
78463;SHT31;67756;51.982;5.648;2024-01-06T01:43:19;9.5;67.2
78463;SHT31;67756;51.982;5.648;2024-01-06T01:45:58;9.5;67.5
78463;SHT31;67756;51.982;5.648;2024-01-06T01:48:32;9.5;66.9
78463;SHT31;67756;51.982;5.648;2024-01-06T01:51:05;9.6;66.6
78463;SHT31;67756;51.982;5.648;2024-01-06T01:53:40;9.6;67.4
78463;SHT31;67756;51.982;5.648;2024-01-06T01:56:12;9.6;66.6
78463;SHT31;67756;51.982;5.648;2024-01-06T01:58:43;9.6;66.3
78463;SHT31;67756;51.982;5.648;2024-01-06T02:01:12;9.6;66.5
78463;SHT31;67756;51.982;5.648;2024-01-06T02:03:42;9.6;67.1
78463;SHT31;67756;51.982;5.648;2024-01-06T02:06:12;9.6;66.9
78463;SHT31;67756;51.982;5.648;2024-01-06T02:08:41;9.6;67.1
78463;SHT31;67756;51.982;5.648;2024-01-06T02:11:09;9.5;67.0
78463;SHT31;67756;51.982;5.648;2024-01-06T02:13:38;9.4;67.7
78463;SHT31;67756;51.982;5.648;2024-01-06T02:16:07;9.4;67.7
78463;SHT31;67756;51.982;5.648;2024-01-06T02:18:35;9.3;68.2
78463;SHT31;67756;51.982;5.648;2024-01-06T02:21:07;9.3;68.3
78463;SHT31;67756;51.982;5.648;2024-01-06T02:23:43;9.3;68.5
78463;SHT31;67756;51.982;5.648;2024-01-06T02:26:13;9.3;68.1
78463;SHT31;67756;51.982;5.648;2024-01-06T02:28:42;9.2;67.3
78463;SHT31;67756;51.982;5.648;2024-01-06T02:31:15;9.2;67.9
78463;SHT31;67756;51.982;5.648;2024-01-06T02:33:43;9.2;68.1
78463;SHT31;67756;51.982;5.648;2024-01-06T02:36:12;9.2;68.1
78463;SHT31;67756;51.982;5.648;2024-01-06T02:38:41;9.2;67.7
78463;SHT31;67756;51.982;5.648;2024-01-06T02:41:09;9.2;66.7
78463;SHT31;67756;51.982;5.648;2024-01-06T02:43:38;9.1;67.1
78463;SHT31;67756;51.982;5.648;2024-01-06T02:46:07;9.1;67.2
78463;SHT31;67756;51.982;5.648;2024-01-06T02:48:36;9.0;67.4
78463;SHT31;67756;51.982;5.648;2024-01-06T02:51:04;9.0;67.4
78463;SHT31;67756;51.982;5.648;2024-01-06T02:53:35;9.0;68.1
78463;SHT31;67756;51.982;5.648;2024-01-06T02:56:04;9.0;67.7
78463;SHT31;67756;51.982;5.648;2024-01-06T02:58:37;9.0;68.2
78463;SHT31;67756;51.982;5.648;2024-01-06T03:01:07;9.1;67.7
78463;SHT31;67756;51.982;5.648;2024-01-06T03:03:37;9.1;67.3
78463;SHT31;67756;51.982;5.648;2024-01-06T03:06:06;9.2;67.1
78463;SHT31;67756;51.982;5.648;2024-01-06T03:08:35;9.2;67.2
78463;SHT31;67756;51.982;5.648;2024-01-06T03:11:03;9.2;67.4
78463;SHT31;67756;51.982;5.648;2024-01-06T03:13:34;9.2;67.3
78463;SHT31;67756;51.982;5.648;2024-01-06T03:16:16;9.3;67.0
78463;SHT31;67756;51.982;5.648;2024-01-06T03:18:44;9.4;66.8
78463;SHT31;67756;51.982;5.648;2024-01-06T03:21:21;9.5;65.9
78463;SHT31;67756;51.982;5.648;2024-01-06T03:23:50;9.5;65.3
78463;SHT31;67756;51.982;5.648;2024-01-06T03:26:21;9.5;65.3
78463;SHT31;67756;51.982;5.648;2024-01-06T03:28:51;9.5;65.6
78463;SHT31;67756;51.982;5.648;2024-01-06T03:31:19;9.5;66.0
78463;SHT31;67756;51.982;5.648;2024-01-06T03:33:55;9.5;66.3
78463;SHT31;67756;51.982;5.648;2024-01-06T03:36:32;9.6;66.5
78463;SHT31;67756;51.982;5.648;2024-01-06T03:39:01;9.6;65.5
78463;SHT31;67756;51.982;5.648;2024-01-06T03:41:29;9.6;65.8
78463;SHT31;67756;51.982;5.648;2024-01-06T03:43:59;9.6;65.2
78463;SHT31;67756;51.982;5.648;2024-01-06T03:46:28;9.7;65.2
78463;SHT31;67756;51.982;5.648;2024-01-06T03:48:56;9.7;66.0
78463;SHT31;67756;51.982;5.648;2024-01-06T03:51:27;9.7;65.7
78463;SHT31;67756;51.982;5.648;2024-01-06T03:53:57;9.7;65.3
78463;SHT31;67756;51.982;5.648;2024-01-06T03:56:26;9.7;65.7
78463;SHT31;67756;51.982;5.648;2024-01-06T03:58:55;9.7;64.7
78463;SHT31;67756;51.982;5.648;2024-01-06T04:01:25;9.7;64.9
78463;SHT31;67756;51.982;5.648;2024-01-06T04:03:54;9.6;65.6
78463;SHT31;67756;51.982;5.648;2024-01-06T04:06:23;9.5;65.7
78463;SHT31;67756;51.982;5.648;2024-01-06T04:08:52;9.5;65.3
78463;SHT31;67756;51.982;5.648;2024-01-06T04:11:21;9.4;65.5
78463;SHT31;67756;51.982;5.648;2024-01-06T04:13:50;9.3;65.4
78463;SHT31;67756;51.982;5.648;2024-01-06T04:16:19;9.3;65.7
78463;SHT31;67756;51.982;5.648;2024-01-06T04:18:48;9.2;66.2
78463;SHT31;67756;51.982;5.648;2024-01-06T04:21:17;9.1;66.3
78463;SHT31;67756;51.982;5.648;2024-01-06T04:23:45;9.1;65.9
78463;SHT31;67756;51.982;5.648;2024-01-06T04:26:14;9.0;65.7
78463;SHT31;67756;51.982;5.648;2024-01-06T04:28:42;9.0;65.8
78463;SHT31;67756;51.982;5.648;2024-01-06T04:31:11;8.9;65.9
78463;SHT31;67756;51.982;5.648;2024-01-06T04:33:40;8.9;66.1
78463;SHT31;67756;51.982;5.648;2024-01-06T04:36:08;8.8;66.4
78463;SHT31;67756;51.982;5.648;2024-01-06T04:38:37;8.7;67.0
78463;SHT31;67756;51.982;5.648;2024-01-06T04:41:06;8.7;66.9
78463;SHT31;67756;51.982;5.648;2024-01-06T04:43:35;8.7;67.2
78463;SHT31;67756;51.982;5.648;2024-01-06T04:46:03;8.7;67.2
78463;SHT31;67756;51.982;5.648;2024-01-06T04:48:32;8.7;66.7
78463;SHT31;67756;51.982;5.648;2024-01-06T04:51:01;8.7;66.6
78463;SHT31;67756;51.982;5.648;2024-01-06T04:53:30;8.6;66.6
78463;SHT31;67756;51.982;5.648;2024-01-06T04:55:59;8.6;67.0
78463;SHT31;67756;51.982;5.648;2024-01-06T04:58:28;8.5;66.9
78463;SHT31;67756;51.982;5.648;2024-01-06T05:00:57;8.5;67.4
78463;SHT31;67756;51.982;5.648;2024-01-06T05:03:25;8.5;67.7
78463;SHT31;67756;51.982;5.648;2024-01-06T05:05:54;8.4;67.6
78463;SHT31;67756;51.982;5.648;2024-01-06T05:08:23;8.4;67.6
78463;SHT31;67756;51.982;5.648;2024-01-06T05:10:52;8.3;66.8
78463;SHT31;67756;51.982;5.648;2024-01-06T05:13:23;8.3;67.0
78463;SHT31;67756;51.982;5.648;2024-01-06T05:15:52;8.3;66.9
78463;SHT31;67756;51.982;5.648;2024-01-06T05:18:20;8.3;67.2
78463;SHT31;67756;51.982;5.648;2024-01-06T05:20:53;8.3;68.3
78463;SHT31;67756;51.982;5.648;2024-01-06T05:23:22;8.3;67.8
78463;SHT31;67756;51.982;5.648;2024-01-06T05:25:51;8.3;67.4
78463;SHT31;67756;51.982;5.648;2024-01-06T05:28:20;8.3;66.7
78463;SHT31;67756;51.982;5.648;2024-01-06T05:30:48;8.2;66.8
78463;SHT31;67756;51.982;5.648;2024-01-06T05:33:17;8.2;67.1
78463;SHT31;67756;51.982;5.648;2024-01-06T05:35:45;8.2;66.8
78463;SHT31;67756;51.982;5.648;2024-01-06T05:38:16;8.3;66.6
78463;SHT31;67756;51.982;5.648;2024-01-06T05:40:47;8.3;67.0
78463;SHT31;67756;51.982;5.648;2024-01-06T05:43:15;8.3;66.5
78463;SHT31;67756;51.982;5.648;2024-01-06T05:45:44;8.3;65.7
78463;SHT31;67756;51.982;5.648;2024-01-06T05:48:12;8.3;65.5
78463;SHT31;67756;51.982;5.648;2024-01-06T05:50:43;8.3;65.0
78463;SHT31;67756;51.982;5.648;2024-01-06T05:53:13;8.4;65.0
78463;SHT31;67756;51.982;5.648;2024-01-06T05:55:45;8.4;64.6
78463;SHT31;67756;51.982;5.648;2024-01-06T05:58:14;8.4;64.8
78463;SHT31;67756;51.982;5.648;2024-01-06T06:00:44;8.3;64.9
78463;SHT31;67756;51.982;5.648;2024-01-06T06:03:13;8.3;64.3
78463;SHT31;67756;51.982;5.648;2024-01-06T06:05:44;8.3;64.4
78463;SHT31;67756;51.982;5.648;2024-01-06T06:08:13;8.2;64.1
78463;SHT31;67756;51.982;5.648;2024-01-06T06:10:43;8.2;64.3
78463;SHT31;67756;51.982;5.648;2024-01-06T06:13:26;8.1;65.2
78463;SHT31;67756;51.982;5.648;2024-01-06T06:15:57;8.1;65.2
78463;SHT31;67756;51.982;5.648;2024-01-06T06:18:31;8.2;64.6
78463;SHT31;67756;51.982;5.648;2024-01-06T06:21:01;8.2;64.5
78463;SHT31;67756;51.982;5.648;2024-01-06T06:23:33;8.1;64.3
78463;SHT31;67756;51.982;5.648;2024-01-06T06:26:06;8.1;64.2
78463;SHT31;67756;51.982;5.648;2024-01-06T06:28:40;8.1;64.4
78463;SHT31;67756;51.982;5.648;2024-01-06T06:31:09;8.0;64.3
78463;SHT31;67756;51.982;5.648;2024-01-06T06:33:37;8.0;64.4
78463;SHT31;67756;51.982;5.648;2024-01-06T06:36:06;7.9;64.5
78463;SHT31;67756;51.982;5.648;2024-01-06T06:38:35;7.8;65.3
78463;SHT31;67756;51.982;5.648;2024-01-06T06:41:05;7.8;65.3
78463;SHT31;67756;51.982;5.648;2024-01-06T06:43:35;7.7;65.2
78463;SHT31;67756;51.982;5.648;2024-01-06T06:46:04;7.7;65.3
78463;SHT31;67756;51.982;5.648;2024-01-06T06:48:33;7.7;65.3
78463;SHT31;67756;51.982;5.648;2024-01-06T06:51:02;7.7;65.2
78463;SHT31;67756;51.982;5.648;2024-01-06T06:53:31;7.6;65.2
78463;SHT31;67756;51.982;5.648;2024-01-06T06:56:00;7.6;66.3
78463;SHT31;67756;51.982;5.648;2024-01-06T06:58:31;7.6;66.7
78463;SHT31;67756;51.982;5.648;2024-01-06T07:01:01;7.7;67.3
78463;SHT31;67756;51.982;5.648;2024-01-06T07:03:29;7.7;65.8
78463;SHT31;67756;51.982;5.648;2024-01-06T07:05:58;7.8;65.3
78463;SHT31;67756;51.982;5.648;2024-01-06T07:08:26;7.8;66.1
78463;SHT31;67756;51.982;5.648;2024-01-06T07:10:56;7.8;65.8
78463;SHT31;67756;51.982;5.648;2024-01-06T07:13:24;7.8;65.4
78463;SHT31;67756;51.982;5.648;2024-01-06T07:15:53;7.8;64.8
78463;SHT31;67756;51.982;5.648;2024-01-06T07:18:22;7.7;65.6
78463;SHT31;67756;51.982;5.648;2024-01-06T07:20:58;7.8;65.3
78463;SHT31;67756;51.982;5.648;2024-01-06T07:23:26;7.8;65.3
78463;SHT31;67756;51.982;5.648;2024-01-06T07:25:59;7.8;65.9
78463;SHT31;67756;51.982;5.648;2024-01-06T07:28:27;7.8;65.2
78463;SHT31;67756;51.982;5.648;2024-01-06T07:30:56;7.8;65.1
78463;SHT31;67756;51.982;5.648;2024-01-06T07:33:25;7.8;65.5
78463;SHT31;67756;51.982;5.648;2024-01-06T07:35:55;7.8;64.8
78463;SHT31;67756;51.982;5.648;2024-01-06T07:38:23;7.7;65.2
78463;SHT31;67756;51.982;5.648;2024-01-06T07:40:52;7.7;65.4
78463;SHT31;67756;51.982;5.648;2024-01-06T07:43:21;7.7;66.0
78463;SHT31;67756;51.982;5.648;2024-01-06T07:45:49;7.7;65.8
78463;SHT31;67756;51.982;5.648;2024-01-06T07:48:18;7.8;66.3
78463;SHT31;67756;51.982;5.648;2024-01-06T07:50:48;7.8;65.8
78463;SHT31;67756;51.982;5.648;2024-01-06T07:53:21;7.9;66.3
78463;SHT31;67756;51.982;5.648;2024-01-06T07:55:50;7.9;65.6
78463;SHT31;67756;51.982;5.648;2024-01-06T07:58:19;8.0;64.7
78463;SHT31;67756;51.982;5.648;2024-01-06T08:00:50;8.1;65.0
78463;SHT31;67756;51.982;5.648;2024-01-06T08:03:19;8.1;64.6
78463;SHT31;67756;51.982;5.648;2024-01-06T08:05:47;8.1;64.4
78463;SHT31;67756;51.982;5.648;2024-01-06T08:08:16;8.1;64.6
78463;SHT31;67756;51.982;5.648;2024-01-06T08:10:46;8.1;64.2
78463;SHT31;67756;51.982;5.648;2024-01-06T08:13:15;8.2;63.9
78463;SHT31;67756;51.982;5.648;2024-01-06T08:15:43;8.2;64.6
78463;SHT31;67756;51.982;5.648;2024-01-06T08:18:12;8.2;64.2
78463;SHT31;67756;51.982;5.648;2024-01-06T08:20:41;8.2;63.7
78463;SHT31;67756;51.982;5.648;2024-01-06T08:23:09;8.1;63.6
78463;SHT31;67756;51.982;5.648;2024-01-06T08:25:40;8.1;63.0
78463;SHT31;67756;51.982;5.648;2024-01-06T08:28:09;8.0;63.8
78463;SHT31;67756;51.982;5.648;2024-01-06T08:30:37;8.0;64.2
78463;SHT31;67756;51.982;5.648;2024-01-06T08:33:06;7.9;63.9
78463;SHT31;67756;51.982;5.648;2024-01-06T08:35:35;7.9;64.7
78463;SHT31;67756;51.982;5.648;2024-01-06T08:38:06;7.9;65.1
78463;SHT31;67756;51.982;5.648;2024-01-06T08:40:35;7.9;65.5
78463;SHT31;67756;51.982;5.648;2024-01-06T08:43:08;7.9;64.6
78463;SHT31;67756;51.982;5.648;2024-01-06T08:45:37;7.9;64.7
78463;SHT31;67756;51.982;5.648;2024-01-06T08:48:06;7.9;64.9
78463;SHT31;67756;51.982;5.648;2024-01-06T08:50:35;7.9;64.8
78463;SHT31;67756;51.982;5.648;2024-01-06T08:53:06;7.9;65.3
78463;SHT31;67756;51.982;5.648;2024-01-06T08:55:34;7.9;64.9
78463;SHT31;67756;51.982;5.648;2024-01-06T08:58:03;7.8;64.4
78463;SHT31;67756;51.982;5.648;2024-01-06T09:00:32;7.8;64.6
78463;SHT31;67756;51.982;5.648;2024-01-06T09:03:00;7.8;64.4
78463;SHT31;67756;51.982;5.648;2024-01-06T09:05:29;7.8;64.2
78463;SHT31;67756;51.982;5.648;2024-01-06T09:07:57;7.7;64.2
78463;SHT31;67756;51.982;5.648;2024-01-06T09:10:28;7.7;64.3
78463;SHT31;67756;51.982;5.648;2024-01-06T09:12:57;7.6;64.2
78463;SHT31;67756;51.982;5.648;2024-01-06T09:15:26;7.6;65.1
78463;SHT31;67756;51.982;5.648;2024-01-06T09:17:55;7.5;65.5
78463;SHT31;67756;51.982;5.648;2024-01-06T09:20:23;7.5;65.3
78463;SHT31;67756;51.982;5.648;2024-01-06T09:22:53;7.5;65.3
78463;SHT31;67756;51.982;5.648;2024-01-06T09:25:22;7.4;65.3
78463;SHT31;67756;51.982;5.648;2024-01-06T09:27:52;7.4;65.3
78463;SHT31;67756;51.982;5.648;2024-01-06T09:30:20;7.4;65.4
78463;SHT31;67756;51.982;5.648;2024-01-06T09:32:49;7.4;65.8
78463;SHT31;67756;51.982;5.648;2024-01-06T09:35:17;7.3;66.1
78463;SHT31;67756;51.982;5.648;2024-01-06T09:37:47;7.4;66.2
78463;SHT31;67756;51.982;5.648;2024-01-06T09:40:23;7.4;65.6
78463;SHT31;67756;51.982;5.648;2024-01-06T09:42:58;7.4;66.0
78463;SHT31;67756;51.982;5.648;2024-01-06T09:45:31;7.5;66.3
78463;SHT31;67756;51.982;5.648;2024-01-06T09:48:11;7.6;65.8
78463;SHT31;67756;51.982;5.648;2024-01-06T09:50:43;7.7;64.6
78463;SHT31;67756;51.982;5.648;2024-01-06T09:53:17;7.9;64.2
78463;SHT31;67756;51.982;5.648;2024-01-06T09:55:48;8.0;64.4
78463;SHT31;67756;51.982;5.648;2024-01-06T09:58:21;8.1;63.7
78463;SHT31;67756;51.982;5.648;2024-01-06T10:00:53;8.2;64.0
78463;SHT31;67756;51.982;5.648;2024-01-06T10:03:22;8.3;63.4
78463;SHT31;67756;51.982;5.648;2024-01-06T10:05:52;8.3;62.4
78463;SHT31;67756;51.982;5.648;2024-01-06T10:08:25;8.4;63.0
78463;SHT31;67756;51.982;5.648;2024-01-06T10:10:54;8.4;61.9
78463;SHT31;67756;51.982;5.648;2024-01-06T10:13:23;8.3;62.0
78463;SHT31;67756;51.982;5.648;2024-01-06T10:15:52;8.3;61.9
78463;SHT31;67756;51.982;5.648;2024-01-06T10:18:21;8.2;62.2
78463;SHT31;67756;51.982;5.648;2024-01-06T10:20:52;8.2;61.8
78463;SHT31;67756;51.982;5.648;2024-01-06T10:23:22;8.1;62.3
78463;SHT31;67756;51.982;5.648;2024-01-06T10:25:56;8.1;62.0
78463;SHT31;67756;51.982;5.648;2024-01-06T10:28:27;8.1;62.7
78463;SHT31;67756;51.982;5.648;2024-01-06T10:30:57;8.0;62.6
78463;SHT31;67756;51.982;5.648;2024-01-06T10:33:26;8.0;62.7
78463;SHT31;67756;51.982;5.648;2024-01-06T10:35:55;7.9;62.3
78463;SHT31;67756;51.982;5.648;2024-01-06T10:38:28;7.9;63.5
78463;SHT31;67756;51.982;5.648;2024-01-06T10:41:02;7.8;62.9
78463;SHT31;67756;51.982;5.648;2024-01-06T10:43:34;7.8;64.0
78463;SHT31;67756;51.982;5.648;2024-01-06T10:46:08;7.8;64.5
78463;SHT31;67756;51.982;5.648;2024-01-06T10:48:43;7.9;63.8
78463;SHT31;67756;51.982;5.648;2024-01-06T10:51:14;7.9;63.5
78463;SHT31;67756;51.982;5.648;2024-01-06T10:53:43;8.0;62.7
78463;SHT31;67756;51.982;5.648;2024-01-06T10:56:12;8.0;63.0
78463;SHT31;67756;51.982;5.648;2024-01-06T10:58:45;8.0;62.1
78463;SHT31;67756;51.982;5.648;2024-01-06T11:01:20;8.0;62.6
78463;SHT31;67756;51.982;5.648;2024-01-06T11:03:51;7.9;62.8
78463;SHT31;67756;51.982;5.648;2024-01-06T11:06:21;7.9;63.5
78463;SHT31;67756;51.982;5.648;2024-01-06T11:08:54;7.9;63.3
78463;SHT31;67756;51.982;5.648;2024-01-06T11:11:25;7.9;63.9
78463;SHT31;67756;51.982;5.648;2024-01-06T11:14:18;7.9;64.2
78463;SHT31;67756;51.982;5.648;2024-01-06T11:16:48;7.9;63.0
78463;SHT31;67756;51.982;5.648;2024-01-06T11:19:44;7.9;62.3
78463;SHT31;67756;51.982;5.648;2024-01-06T11:22:24;7.8;63.2
78463;SHT31;67756;51.982;5.648;2024-01-06T11:24:54;7.8;63.3
78463;SHT31;67756;51.982;5.648;2024-01-06T11:27:26;7.8;63.7
78463;SHT31;67756;51.982;5.648;2024-01-06T11:29:56;7.8;64.7
78463;SHT31;67756;51.982;5.648;2024-01-06T11:32:30;7.8;64.1
78463;SHT31;67756;51.982;5.648;2024-01-06T11:35:08;7.7;63.7
78463;SHT31;67756;51.982;5.648;2024-01-06T11:37:54;7.7;64.7
78463;SHT31;67756;51.982;5.648;2024-01-06T11:40:34;7.7;64.5
78463;SHT31;67756;51.982;5.648;2024-01-06T11:43:06;7.7;64.6
78463;SHT31;67756;51.982;5.648;2024-01-06T11:45:36;7.7;64.4
78463;SHT31;67756;51.982;5.648;2024-01-06T11:48:07;7.7;64.6
78463;SHT31;67756;51.982;5.648;2024-01-06T11:50:38;7.7;66.2
78463;SHT31;67756;51.982;5.648;2024-01-06T11:53:08;7.8;65.8
78463;SHT31;67756;51.982;5.648;2024-01-06T11:55:38;7.8;64.7
78463;SHT31;67756;51.982;5.648;2024-01-06T11:58:09;7.9;63.9
78463;SHT31;67756;51.982;5.648;2024-01-06T12:00:37;7.9;64.3
78463;SHT31;67756;51.982;5.648;2024-01-06T12:03:06;8.0;63.1
78463;SHT31;67756;51.982;5.648;2024-01-06T12:05:35;8.1;63.3
78463;SHT31;67756;51.982;5.648;2024-01-06T12:08:05;8.1;63.5
78463;SHT31;67756;51.982;5.648;2024-01-06T12:10:37;8.2;63.7
78463;SHT31;67756;51.982;5.648;2024-01-06T12:13:11;8.3;62.7
78463;SHT31;67756;51.982;5.648;2024-01-06T12:15:41;8.4;62.5
78463;SHT31;67756;51.982;5.648;2024-01-06T12:18:19;8.4;62.1
78463;SHT31;67756;51.982;5.648;2024-01-06T12:20:57;8.5;61.9
78463;SHT31;67756;51.982;5.648;2024-01-06T12:23:29;8.5;61.5
78463;SHT31;67756;51.982;5.648;2024-01-06T12:26:00;8.5;61.4
78463;SHT31;67756;51.982;5.648;2024-01-06T12:28:29;8.6;61.5
78463;SHT31;67756;51.982;5.648;2024-01-06T12:30:58;8.5;61.9
78463;SHT31;67756;51.982;5.648;2024-01-06T12:33:29;8.5;61.7
78463;SHT31;67756;51.982;5.648;2024-01-06T12:36:01;8.5;61.7
78463;SHT31;67756;51.982;5.648;2024-01-06T12:38:31;8.5;61.8
78463;SHT31;67756;51.982;5.648;2024-01-06T12:41:01;8.5;62.0
78463;SHT31;67756;51.982;5.648;2024-01-06T12:43:30;8.5;61.3
78463;SHT31;67756;51.982;5.648;2024-01-06T12:45:58;8.5;61.8
78463;SHT31;67756;51.982;5.648;2024-01-06T12:48:27;8.5;61.3
78463;SHT31;67756;51.982;5.648;2024-01-06T12:50:56;8.5;61.0
78463;SHT31;67756;51.982;5.648;2024-01-06T12:53:24;8.4;60.7
78463;SHT31;67756;51.982;5.648;2024-01-06T12:55:53;8.4;61.4
78463;SHT31;67756;51.982;5.648;2024-01-06T12:58:21;8.4;61.0
78463;SHT31;67756;51.982;5.648;2024-01-06T13:00:50;8.3;61.3
78463;SHT31;67756;51.982;5.648;2024-01-06T13:03:20;8.3;61.7
78463;SHT31;67756;51.982;5.648;2024-01-06T13:05:51;8.2;61.3
78463;SHT31;67756;51.982;5.648;2024-01-06T13:08:19;8.2;61.3
78463;SHT31;67756;51.982;5.648;2024-01-06T13:10:48;8.1;61.0
78463;SHT31;67756;51.982;5.648;2024-01-06T13:13:17;8.0;62.7
78463;SHT31;67756;51.982;5.648;2024-01-06T13:15:46;8.0;62.0
78463;SHT31;67756;51.982;5.648;2024-01-06T13:18:14;7.9;62.2
78463;SHT31;67756;51.982;5.648;2024-01-06T13:20:43;7.9;62.2
78463;SHT31;67756;51.982;5.648;2024-01-06T13:23:12;7.9;62.3
78463;SHT31;67756;51.982;5.648;2024-01-06T13:25:41;7.9;62.5
78463;SHT31;67756;51.982;5.648;2024-01-06T13:28:09;7.9;62.9
78463;SHT31;67756;51.982;5.648;2024-01-06T13:30:40;7.9;62.9
78463;SHT31;67756;51.982;5.648;2024-01-06T13:33:09;7.9;63.4
78463;SHT31;67756;51.982;5.648;2024-01-06T13:35:40;7.9;62.7
78463;SHT31;67756;51.982;5.648;2024-01-06T13:38:10;8.0;62.8
78463;SHT31;67756;51.982;5.648;2024-01-06T13:40:42;8.0;63.1
78463;SHT31;67756;51.982;5.648;2024-01-06T13:43:13;8.0;62.5
78463;SHT31;67756;51.982;5.648;2024-01-06T13:45:42;8.1;62.5
78463;SHT31;67756;51.982;5.648;2024-01-06T13:48:13;8.1;62.7
78463;SHT31;67756;51.982;5.648;2024-01-06T13:50:44;8.2;61.9
78463;SHT31;67756;51.982;5.648;2024-01-06T13:53:15;8.2;61.9
78463;SHT31;67756;51.982;5.648;2024-01-06T13:55:48;8.2;61.7
78463;SHT31;67756;51.982;5.648;2024-01-06T13:58:19;8.3;62.1
78463;SHT31;67756;51.982;5.648;2024-01-06T14:00:47;8.3;62.0
78463;SHT31;67756;51.982;5.648;2024-01-06T14:03:17;8.3;63.0
78463;SHT31;67756;51.982;5.648;2024-01-06T14:05:47;8.4;61.3
78463;SHT31;67756;51.982;5.648;2024-01-06T14:08:18;8.4;61.2
78463;SHT31;67756;51.982;5.648;2024-01-06T14:10:46;8.4;60.8
78463;SHT31;67756;51.982;5.648;2024-01-06T14:13:17;8.3;61.1
78463;SHT31;67756;51.982;5.648;2024-01-06T14:15:46;8.3;60.4
78463;SHT31;67756;51.982;5.648;2024-01-06T14:18:15;8.3;60.9
78463;SHT31;67756;51.982;5.648;2024-01-06T14:20:44;8.3;61.3
78463;SHT31;67756;51.982;5.648;2024-01-06T14:23:14;8.2;61.2
78463;SHT31;67756;51.982;5.648;2024-01-06T14:25:43;8.1;61.5
78463;SHT31;67756;51.982;5.648;2024-01-06T14:28:12;8.1;61.7
78463;SHT31;67756;51.982;5.648;2024-01-06T14:30:41;8.1;62.1
78463;SHT31;67756;51.982;5.648;2024-01-06T14:33:09;8.1;61.9
78463;SHT31;67756;51.982;5.648;2024-01-06T14:35:38;8.0;62.3
78463;SHT31;67756;51.982;5.648;2024-01-06T14:38:08;8.0;62.9
78463;SHT31;67756;51.982;5.648;2024-01-06T14:40:37;8.0;62.7
78463;SHT31;67756;51.982;5.648;2024-01-06T14:43:06;8.0;63.1
78463;SHT31;67756;51.982;5.648;2024-01-06T14:45:37;8.1;62.5
78463;SHT31;67756;51.982;5.648;2024-01-06T14:48:07;8.1;61.9
78463;SHT31;67756;51.982;5.648;2024-01-06T14:50:36;8.2;62.1
78463;SHT31;67756;51.982;5.648;2024-01-06T14:53:07;8.1;61.5
78463;SHT31;67756;51.982;5.648;2024-01-06T14:55:37;8.1;61.3
78463;SHT31;67756;51.982;5.648;2024-01-06T14:58:06;8.1;61.2
78463;SHT31;67756;51.982;5.648;2024-01-06T15:00:35;8.0;61.9
78463;SHT31;67756;51.982;5.648;2024-01-06T15:03:04;7.9;61.8
78463;SHT31;67756;51.982;5.648;2024-01-06T15:05:32;7.8;61.8
78463;SHT31;67756;51.982;5.648;2024-01-06T15:08:01;7.8;61.9
78463;SHT31;67756;51.982;5.648;2024-01-06T15:10:30;7.7;62.7
78463;SHT31;67756;51.982;5.648;2024-01-06T15:12:58;7.7;63.1
78463;SHT31;67756;51.982;5.648;2024-01-06T15:15:27;7.7;63.5
78463;SHT31;67756;51.982;5.648;2024-01-06T15:17:58;7.8;63.0
78463;SHT31;67756;51.982;5.648;2024-01-06T15:20:27;7.7;62.8
78463;SHT31;67756;51.982;5.648;2024-01-06T15:22:56;7.7;62.8
78463;SHT31;67756;51.982;5.648;2024-01-06T15:25:25;7.7;63.7
78463;SHT31;67756;51.982;5.648;2024-01-06T15:27:56;7.7;63.3
78463;SHT31;67756;51.982;5.648;2024-01-06T15:30:26;7.7;64.0
78463;SHT31;67756;51.982;5.648;2024-01-06T15:32:55;7.7;63.2
78463;SHT31;67756;51.982;5.648;2024-01-06T15:35:24;7.7;63.3
78463;SHT31;67756;51.982;5.648;2024-01-06T15:37:52;7.7;62.8
78463;SHT31;67756;51.982;5.648;2024-01-06T15:40:21;7.6;62.7
78463;SHT31;67756;51.982;5.648;2024-01-06T15:42:50;7.6;62.3
78463;SHT31;67756;51.982;5.648;2024-01-06T15:45:18;7.6;61.8
78463;SHT31;67756;51.982;5.648;2024-01-06T15:47:47;7.5;63.0
78463;SHT31;67756;51.982;5.648;2024-01-06T15:50:15;7.5;62.9
78463;SHT31;67756;51.982;5.648;2024-01-06T15:52:46;7.5;63.2
78463;SHT31;67756;51.982;5.648;2024-01-06T15:55:15;7.5;62.9
78463;SHT31;67756;51.982;5.648;2024-01-06T15:57:44;7.5;63.2
78463;SHT31;67756;51.982;5.648;2024-01-06T16:00:15;7.5;61.9
78463;SHT31;67756;51.982;5.648;2024-01-06T16:02:46;7.4;62.5
78463;SHT31;67756;51.982;5.648;2024-01-06T16:05:15;7.4;63.1
78463;SHT31;67756;51.982;5.648;2024-01-06T16:07:43;7.4;62.8
78463;SHT31;67756;51.982;5.648;2024-01-06T16:10:12;7.4;63.0
78463;SHT31;67756;51.982;5.648;2024-01-06T16:12:41;7.3;63.0
78463;SHT31;67756;51.982;5.648;2024-01-06T16:15:11;7.3;63.5
78463;SHT31;67756;51.982;5.648;2024-01-06T16:17:39;7.3;63.7
78463;SHT31;67756;51.982;5.648;2024-01-06T16:20:09;7.4;63.4
78463;SHT31;67756;51.982;5.648;2024-01-06T16:22:38;7.4;63.4
78463;SHT31;67756;51.982;5.648;2024-01-06T16:25:09;7.5;62.7
78463;SHT31;67756;51.982;5.648;2024-01-06T16:27:37;7.5;62.6
78463;SHT31;67756;51.982;5.648;2024-01-06T16:30:08;7.6;62.4
78463;SHT31;67756;51.982;5.648;2024-01-06T16:32:37;7.6;61.9
78463;SHT31;67756;51.982;5.648;2024-01-06T16:35:06;7.6;62.3